sensor_id;sensor_type;location;lat;lon;timestamp;pressure;altitude;pressure_sealevel;temperature;humidity
75650;BME280;64245;51.282;22.494;2023-07-13T00:01:48;98631.94;;;17.45;100.00
75650;BME280;64245;51.282;22.494;2023-07-13T00:04:19;98644.31;;;17.54;100.00
75650;BME280;64245;51.282;22.494;2023-07-13T00:06:46;98639.31;;;17.58;100.00
75650;BME280;64245;51.282;22.494;2023-07-13T00:09:16;98657.97;;;17.61;100.00
75650;BME280;64245;51.282;22.494;2023-07-13T00:11:49;98647.88;;;17.48;100.00
75650;BME280;64245;51.282;22.494;2023-07-13T00:14:15;98665.41;;;17.39;100.00
75650;BME280;64245;51.282;22.494;2023-07-13T00:16:41;98664.53;;;17.32;100.00
75650;BME280;64245;51.282;22.494;2023-07-13T00:19:11;98662.66;;;17.26;100.00
75650;BME280;64245;51.282;22.494;2023-07-13T00:21:38;98659.44;;;17.16;100.00
75650;BME280;64245;51.282;22.494;2023-07-13T00:24:06;98648.75;;;17.14;100.00
75650;BME280;64245;51.282;22.494;2023-07-13T00:26:33;98657.38;;;17.18;100.00
75650;BME280;64245;51.282;22.494;2023-07-13T00:28:59;98649.38;;;17.10;100.00
75650;BME280;64245;51.282;22.494;2023-07-13T00:31:25;98646.25;;;17.13;100.00
75650;BME280;64245;51.282;22.494;2023-07-13T00:33:51;98651.88;;;17.05;100.00
75650;BME280;64245;51.282;22.494;2023-07-13T00:36:17;98646.38;;;16.98;100.00
75650;BME280;64245;51.282;22.494;2023-07-13T00:38:42;98630.44;;;16.88;100.00
75650;BME280;64245;51.282;22.494;2023-07-13T00:41:09;98621.63;;;16.86;100.00
75650;BME280;64245;51.282;22.494;2023-07-13T00:43:35;98635.38;;;16.78;100.00
75650;BME280;64245;51.282;22.494;2023-07-13T00:48:34;98634.34;;;16.79;100.00
75650;BME280;64245;51.282;22.494;2023-07-13T00:51:02;98654.22;;;16.80;100.00
75650;BME280;64245;51.282;22.494;2023-07-13T00:53:29;98639.78;;;16.79;100.00
75650;BME280;64245;51.282;22.494;2023-07-13T00:55:57;98636.66;;;16.82;100.00
75650;BME280;64245;51.282;22.494;2023-07-13T00:58:25;98636.63;;;16.76;100.00
75650;BME280;64245;51.282;22.494;2023-07-13T01:00:51;98639.78;;;16.79;100.00
75650;BME280;64245;51.282;22.494;2023-07-13T01:03:18;98651.06;;;16.76;100.00
75650;BME280;64245;51.282;22.494;2023-07-13T01:05:47;98640.34;;;16.68;100.00
75650;BME280;64245;51.282;22.494;2023-07-13T01:08:16;98642.44;;;16.66;100.00
75650;BME280;64245;51.282;22.494;2023-07-13T01:10:55;98657.31;;;16.70;100.00
75650;BME280;64245;51.282;22.494;2023-07-13T01:13:21;98652.91;;;16.69;100.00
75650;BME280;64245;51.282;22.494;2023-07-13T01:15:50;98646.19;;;16.65;100.00
75650;BME280;64245;51.282;22.494;2023-07-13T01:18:21;98658.25;;;16.63;100.00
75650;BME280;64245;51.282;22.494;2023-07-13T01:20:52;98655.28;;;16.57;100.00
75650;BME280;64245;51.282;22.494;2023-07-13T01:23:18;98649.00;;;16.50;100.00
75650;BME280;64245;51.282;22.494;2023-07-13T01:25:44;98647.06;;;16.44;100.00
75650;BME280;64245;51.282;22.494;2023-07-13T01:28:10;98650.81;;;16.43;100.00
75650;BME280;64245;51.282;22.494;2023-07-13T01:30:36;98647.06;;;16.44;100.00
75650;BME280;64245;51.282;22.494;2023-07-13T01:33:08;98640.97;;;16.42;100.00
75650;BME280;64245;51.282;22.494;2023-07-13T01:35:35;98653.06;;;16.40;100.00
75650;BME280;64245;51.282;22.494;2023-07-13T01:38:01;98659.53;;;16.39;100.00
75650;BME280;64245;51.282;22.494;2023-07-13T01:40:28;98653.16;;;16.25;100.00
75650;BME280;64245;51.282;22.494;2023-07-13T01:42:54;98669.94;;;16.29;100.00
75650;BME280;64245;51.282;22.494;2023-07-13T01:45:19;98672.84;;;16.27;100.00
75650;BME280;64245;51.282;22.494;2023-07-13T01:47:45;98668.38;;;16.19;100.00
75650;BME280;64245;51.282;22.494;2023-07-13T01:50:11;98670.31;;;16.26;100.00
75650;BME280;64245;51.282;22.494;2023-07-13T01:52:36;98676.19;;;16.29;100.00
75650;BME280;64245;51.282;22.494;2023-07-13T01:55:02;98680.16;;;16.27;100.00
75650;BME280;64245;51.282;22.494;2023-07-13T01:57:28;98683.97;;;16.32;100.00
75650;BME280;64245;51.282;22.494;2023-07-13T01:59:54;98693.16;;;16.31;100.00
75650;BME280;64245;51.282;22.494;2023-07-13T02:02:19;98682.03;;;16.26;100.00
75650;BME280;64245;51.282;22.494;2023-07-13T02:04:45;98688.28;;;16.27;100.00
75650;BME280;64245;51.282;22.494;2023-07-13T02:07:11;98685.13;;;16.23;100.00
75650;BME280;64245;51.282;22.494;2023-07-13T02:09:37;98685.13;;;16.23;100.00
75650;BME280;64245;51.282;22.494;2023-07-13T02:12:02;98688.28;;;16.27;100.00
75650;BME280;64245;51.282;22.494;2023-07-13T02:14:28;98683.91;;;16.26;100.00
75650;BME280;64245;51.282;22.494;2023-07-13T02:16:54;98691.66;;;16.29;100.00
75650;BME280;64245;51.282;22.494;2023-07-13T02:19:20;98695.41;;;16.28;100.00
75650;BME280;64245;51.282;22.494;2023-07-13T02:21:46;98686.81;;;16.24;100.00
75650;BME280;64245;51.282;22.494;2023-07-13T02:24:12;98695.88;;;16.31;100.00
75650;BME280;64245;51.282;22.494;2023-07-13T02:26:45;98713.41;;;16.29;100.00
75650;BME280;64245;51.282;22.494;2023-07-13T02:29:11;98713.78;;;16.26;100.00
75650;BME280;64245;51.282;22.494;2023-07-13T02:31:37;98715.47;;;16.27;100.00
75650;BME280;64245;51.282;22.494;2023-07-13T02:34:03;98708.16;;;16.27;100.00
75650;BME280;64245;51.282;22.494;2023-07-13T02:36:30;98696.38;;;16.20;100.00
75650;BME280;64245;51.282;22.494;2023-07-13T02:38:56;98714.91;;;16.31;100.00
75650;BME280;64245;51.282;22.494;2023-07-13T02:41:21;98711.19;;;16.39;100.00
75650;BME280;64245;51.282;22.494;2023-07-13T02:43:48;98718.69;;;16.37;100.00
75650;BME280;64245;51.282;22.494;2023-07-13T02:46:14;98716.41;;;16.40;100.00
75650;BME280;64245;51.282;22.494;2023-07-13T02:48:40;98720.25;;;16.46;100.00
75650;BME280;64245;51.282;22.494;2023-07-13T02:51:06;98728.59;;;16.44;100.00
75650;BME280;64245;51.282;22.494;2023-07-13T02:53:33;98718.09;;;16.41;100.00
75650;BME280;64245;51.282;22.494;2023-07-13T02:55:59;98717.91;;;16.43;100.00
75650;BME280;64245;51.282;22.494;2023-07-13T02:58:28;98721.03;;;16.40;100.00
75650;BME280;64245;51.282;22.494;2023-07-13T03:00:55;98720.69;;;16.49;100.00
75650;BME280;64245;51.282;22.494;2023-07-13T03:03:21;98732.03;;;16.53;100.00
75650;BME280;64245;51.282;22.494;2023-07-13T03:05:47;98732.44;;;16.56;100.00
75650;BME280;64245;51.282;22.494;2023-07-13T03:08:16;98727.63;;;16.52;100.00
75650;BME280;64245;51.282;22.494;2023-07-13T03:10:43;98727.44;;;16.53;100.00
75650;BME280;64245;51.282;22.494;2023-07-13T03:13:09;98731.00;;;16.54;100.00
75650;BME280;64245;51.282;22.494;2023-07-13T03:15:34;98721.34;;;16.51;100.00
75650;BME280;64245;51.282;22.494;2023-07-13T03:18:00;98725.97;;;16.57;100.00
75650;BME280;64245;51.282;22.494;2023-07-13T03:20:26;98728.28;;;16.54;100.00
75650;BME280;64245;51.282;22.494;2023-07-13T03:22:51;98738.34;;;16.60;100.00
75650;BME280;64245;51.282;22.494;2023-07-13T03:25:17;98729.16;;;16.61;100.00
75650;BME280;64245;51.282;22.494;2023-07-13T03:27:43;98726.78;;;16.73;100.00
75650;BME280;64245;51.282;22.494;2023-07-13T03:30:09;98728.03;;;16.77;100.00
75650;BME280;64245;51.282;22.494;2023-07-13T03:32:35;98742.94;;;16.81;100.00
75650;BME280;64245;51.282;22.494;2023-07-13T03:35:00;98739.81;;;16.84;100.00
75650;BME280;64245;51.282;22.494;2023-07-13T03:37:27;98730.88;;;16.90;100.00
75650;BME280;64245;51.282;22.494;2023-07-13T03:39:52;98732.38;;;16.99;100.00
75650;BME280;64245;51.282;22.494;2023-07-13T03:42:18;98734.38;;;17.12;100.00
75650;BME280;64245;51.282;22.494;2023-07-13T03:44:44;98739.25;;;17.23;100.00
75650;BME280;64245;51.282;22.494;2023-07-13T03:47:16;98737.41;;;17.30;100.00
75650;BME280;64245;51.282;22.494;2023-07-13T03:49:41;98742.28;;;17.41;100.00
75650;BME280;64245;51.282;22.494;2023-07-13T03:52:07;98719.81;;;17.33;100.00
75650;BME280;64245;51.282;22.494;2023-07-13T03:54:33;98742.28;;;17.41;100.00
75650;BME280;64245;51.282;22.494;2023-07-13T03:56:59;98742.31;;;17.48;100.00
75650;BME280;64245;51.282;22.494;2023-07-13T03:59:24;98738.31;;;17.44;100.00
75650;BME280;64245;51.282;22.494;2023-07-13T04:01:50;98743.81;;;17.50;100.00
75650;BME280;64245;51.282;22.494;2023-07-13T04:04:15;98743.84;;;17.64;100.00
75650;BME280;64245;51.282;22.494;2023-07-13T04:06:44;98744.06;;;17.62;100.00
75650;BME280;64245;51.282;22.494;2023-07-13T04:09:10;98734.91;;;17.70;100.00
75650;BME280;64245;51.282;22.494;2023-07-13T04:11:35;98737.19;;;17.73;100.00
75650;BME280;64245;51.282;22.494;2023-07-13T04:14:04;98733.88;;;17.77;100.00
75650;BME280;64245;51.282;22.494;2023-07-13T04:16:30;98736.63;;;17.84;100.00
75650;BME280;64245;51.282;22.494;2023-07-13T04:18:56;98729.94;;;17.86;100.00
75650;BME280;64245;51.282;22.494;2023-07-13T04:21:29;98733.56;;;18.07;100.00
75650;BME280;64245;51.282;22.494;2023-07-13T04:23:55;98741.56;;;18.21;100.00
75650;BME280;64245;51.282;22.494;2023-07-13T04:26:22;98750.56;;;18.28;100.00
75650;BME280;64245;51.282;22.494;2023-07-13T04:28:49;98752.28;;;18.43;100.00
75650;BME280;64245;51.282;22.494;2023-07-13T04:31:15;98747.66;;;18.56;100.00
75650;BME280;64245;51.282;22.494;2023-07-13T04:33:41;98761.75;;;18.73;100.00
75650;BME280;64245;51.282;22.494;2023-07-13T04:36:08;98761.34;;;18.89;100.00
75650;BME280;64245;51.282;22.494;2023-07-13T04:38:35;98765.34;;;19.00;100.00
75650;BME280;64245;51.282;22.494;2023-07-13T04:41:05;98766.16;;;18.94;100.00
75650;BME280;64245;51.282;22.494;2023-07-13T04:43:32;98766.16;;;18.94;100.00
75650;BME280;64245;51.282;22.494;2023-07-13T04:46:03;98763.88;;;18.97;100.00
75650;BME280;64245;51.282;22.494;2023-07-13T04:48:29;98763.84;;;19.11;100.00
75650;BME280;64245;51.282;22.494;2023-07-13T04:50:56;98760.47;;;19.09;100.00
75650;BME280;64245;51.282;22.494;2023-07-13T04:53:23;98767.63;;;19.16;100.00
75650;BME280;64245;51.282;22.494;2023-07-13T04:55:49;98767.38;;;19.24;100.00
75650;BME280;64245;51.282;22.494;2023-07-13T04:58:15;98766.31;;;19.32;100.00
75650;BME280;64245;51.282;22.494;2023-07-13T05:00:41;98753.50;;;19.39;100.00
75650;BME280;64245;51.282;22.494;2023-07-13T05:03:07;98772.59;;;19.46;100.00
75650;BME280;64245;51.282;22.494;2023-07-13T05:05:32;98775.56;;;19.51;100.00
75650;BME280;64245;51.282;22.494;2023-07-13T05:07:59;98773.81;;;19.63;100.00
75650;BME280;64245;51.282;22.494;2023-07-13T05:10:25;98774.28;;;19.60;100.00
75650;BME280;64245;51.282;22.494;2023-07-13T05:12:51;98792.56;;;19.59;100.00
75650;BME280;64245;51.282;22.494;2023-07-13T05:15:18;98782.44;;;19.66;100.00
75650;BME280;64245;51.282;22.494;2023-07-13T05:17:49;98781.16;;;19.76;100.00
75650;BME280;64245;51.282;22.494;2023-07-13T05:20:16;98784.25;;;19.86;100.00
75650;BME280;64245;51.282;22.494;2023-07-13T05:22:43;98784.25;;;19.86;100.00
75650;BME280;64245;51.282;22.494;2023-07-13T05:25:09;98801.91;;;19.96;100.00
75650;BME280;64245;51.282;22.494;2023-07-13T05:27:35;98803.31;;;20.06;100.00
75650;BME280;64245;51.282;22.494;2023-07-13T05:30:03;98803.72;;;20.09;100.00
75650;BME280;64245;51.282;22.494;2023-07-13T05:32:29;98804.13;;;20.13;100.00
75650;BME280;64245;51.282;22.494;2023-07-13T05:34:55;98808.25;;;20.28;100.00
75650;BME280;64245;51.282;22.494;2023-07-13T05:37:20;98803.41;;;20.30;100.00
75650;BME280;64245;51.282;22.494;2023-07-13T05:39:46;98814.06;;;20.45;98.52
75650;BME280;64245;51.282;22.494;2023-07-13T05:42:12;98816.69;;;20.65;98.14
75650;BME280;64245;51.282;22.494;2023-07-13T05:44:38;98820.00;;;20.74;97.76
75650;BME280;64245;51.282;22.494;2023-07-13T05:47:03;98822.09;;;20.78;100.00
75650;BME280;64245;51.282;22.494;2023-07-13T05:49:30;98835.09;;;20.83;96.45
75650;BME280;64245;51.282;22.494;2023-07-13T05:51:56;98834.00;;;20.90;99.17
75650;BME280;64245;51.282;22.494;2023-07-13T05:54:22;98843.25;;;20.89;100.00
75650;BME280;64245;51.282;22.494;2023-07-13T05:56:47;98839.47;;;20.90;100.00
75650;BME280;64245;51.282;22.494;2023-07-13T05:59:13;98844.09;;;20.90;100.00
75650;BME280;64245;51.282;22.494;2023-07-13T06:01:39;98821.97;;;20.91;100.00
75650;BME280;64245;51.282;22.494;2023-07-13T06:04:04;98831.22;;;20.97;97.58
75650;BME280;64245;51.282;22.494;2023-07-13T06:06:30;98831.13;;;21.03;94.19
75650;BME280;64245;51.282;22.494;2023-07-13T06:08:56;98833.56;;;20.93;94.71
75650;BME280;64245;51.282;22.494;2023-07-13T06:11:23;98825.44;;;21.05;92.98
75650;BME280;64245;51.282;22.494;2023-07-13T06:13:50;98820.84;;;20.99;92.93
75650;BME280;64245;51.282;22.494;2023-07-13T06:16:16;98811.47;;;21.13;92.98
75650;BME280;64245;51.282;22.494;2023-07-13T06:18:42;98816.13;;;21.37;92.92
75650;BME280;64245;51.282;22.494;2023-07-13T06:21:19;98799.09;;;21.35;90.59
75650;BME280;64245;51.282;22.494;2023-07-13T06:23:47;98803.13;;;21.33;89.80
75650;BME280;64245;51.282;22.494;2023-07-13T06:26:16;98807.31;;;21.35;90.30
75650;BME280;64245;51.282;22.494;2023-07-13T06:28:43;98798.78;;;21.44;90.60
75650;BME280;64245;51.282;22.494;2023-07-13T06:31:10;98793.47;;;21.49;90.19
75650;BME280;64245;51.282;22.494;2023-07-13T06:33:36;98792.09;;;21.58;90.63
75650;BME280;64245;51.282;22.494;2023-07-13T06:36:04;98788.91;;;21.61;91.60
75650;BME280;64245;51.282;22.494;2023-07-13T06:38:31;98771.78;;;21.47;91.75
75650;BME280;64245;51.282;22.494;2023-07-13T06:40:57;98762.78;;;21.40;90.46
75650;BME280;64245;51.282;22.494;2023-07-13T06:43:22;98765.81;;;21.32;90.28
75650;BME280;64245;51.282;22.494;2023-07-13T06:45:50;98766.00;;;21.12;90.93
75650;BME280;64245;51.282;22.494;2023-07-13T06:48:18;98769.84;;;21.29;90.15
75650;BME280;64245;51.282;22.494;2023-07-13T06:50:44;98765.28;;;21.42;90.14
75650;BME280;64245;51.282;22.494;2023-07-13T06:53:11;98767.44;;;21.58;89.48
75650;BME280;64245;51.282;22.494;2023-07-13T06:55:37;98770.69;;;21.85;86.36
75650;BME280;64245;51.282;22.494;2023-07-13T06:58:03;98773.56;;;22.26;85.94
75650;BME280;64245;51.282;22.494;2023-07-13T07:00:29;98769.78;;;22.69;82.56
75650;BME280;64245;51.282;22.494;2023-07-13T07:02:55;98777.22;;;22.92;82.39
75650;BME280;64245;51.282;22.494;2023-07-13T07:05:21;98771.50;;;22.93;81.68
75650;BME280;64245;51.282;22.494;2023-07-13T07:07:49;98767.47;;;23.07;78.84
75650;BME280;64245;51.282;22.494;2023-07-13T07:10:15;98773.94;;;23.25;79.09
75650;BME280;64245;51.282;22.494;2023-07-13T07:12:40;98769.84;;;23.39;78.93
75650;BME280;64245;51.282;22.494;2023-07-13T07:15:06;98766.66;;;23.54;77.87
75650;BME280;64245;51.282;22.494;2023-07-13T07:17:32;98753.47;;;23.67;75.36
75650;BME280;64245;51.282;22.494;2023-07-13T07:19:58;98762.44;;;23.74;75.11
75650;BME280;64245;51.282;22.494;2023-07-13T07:22:24;98759.41;;;23.88;76.31
75650;BME280;64245;51.282;22.494;2023-07-13T07:24:53;98764.16;;;24.04;75.47
75650;BME280;64245;51.282;22.494;2023-07-13T07:27:19;98755.91;;;24.04;76.01
75650;BME280;64245;51.282;22.494;2023-07-13T07:29:45;98759.09;;;24.13;75.82
75650;BME280;64245;51.282;22.494;2023-07-13T07:32:10;98771.84;;;24.30;77.83
75650;BME280;64245;51.282;22.494;2023-07-13T07:34:36;98777.09;;;24.32;72.71
75650;BME280;64245;51.282;22.494;2023-07-13T07:37:02;98799.88;;;24.16;76.01
75650;BME280;64245;51.282;22.494;2023-07-13T07:39:29;98802.50;;;24.22;76.97
75650;BME280;64245;51.282;22.494;2023-07-13T07:41:55;98807.16;;;24.33;80.45
75650;BME280;64245;51.282;22.494;2023-07-13T07:44:20;98811.25;;;24.19;82.39
75650;BME280;64245;51.282;22.494;2023-07-13T07:46:46;98810.47;;;23.95;76.95
75650;BME280;64245;51.282;22.494;2023-07-13T07:49:12;98814.19;;;23.77;78.97
75650;BME280;64245;51.282;22.494;2023-07-13T07:51:38;98811.72;;;23.64;77.58
75650;BME280;64245;51.282;22.494;2023-07-13T07:54:04;98819.56;;;23.37;77.32
75650;BME280;64245;51.282;22.494;2023-07-13T07:56:31;98817.78;;;23.43;78.39
75650;BME280;64245;51.282;22.494;2023-07-13T07:58:56;98823.63;;;23.35;76.89
75650;BME280;64245;51.282;22.494;2023-07-13T08:01:22;98829.34;;;23.22;81.97
75650;BME280;64245;51.282;22.494;2023-07-13T08:03:48;98818.47;;;23.03;78.02
75650;BME280;64245;51.282;22.494;2023-07-13T08:06:14;98837.00;;;23.08;80.66
75650;BME280;64245;51.282;22.494;2023-07-13T08:08:40;98838.84;;;22.96;83.49
75650;BME280;64245;51.282;22.494;2023-07-13T08:11:07;98841.00;;;22.94;83.05
75650;BME280;64245;51.282;22.494;2023-07-13T08:13:33;98854.03;;;22.98;85.72
75650;BME280;64245;51.282;22.494;2023-07-13T08:15:59;98845.88;;;22.62;84.50
75650;BME280;64245;51.282;22.494;2023-07-13T08:18:26;98844.28;;;22.54;83.91
75650;BME280;64245;51.282;22.494;2023-07-13T08:20:54;98851.06;;;22.70;85.45
75650;BME280;64245;51.282;22.494;2023-07-13T08:23:22;98843.69;;;22.52;84.32
75650;BME280;64245;51.282;22.494;2023-07-13T08:25:52;98851.88;;;22.40;85.47
75650;BME280;64245;51.282;22.494;2023-07-13T08:28:22;98862.03;;;22.40;84.92
75650;BME280;64245;51.282;22.494;2023-07-13T08:30:48;98843.59;;;22.29;87.89
75650;BME280;64245;51.282;22.494;2023-07-13T08:33:15;98859.28;;;22.22;87.63
75650;BME280;64245;51.282;22.494;2023-07-13T08:35:41;98856.72;;;22.09;85.23
75650;BME280;64245;51.282;22.494;2023-07-13T08:38:06;98847.78;;;22.13;86.46
75650;BME280;64245;51.282;22.494;2023-07-13T08:40:33;98854.50;;;22.17;85.68
75650;BME280;64245;51.282;22.494;2023-07-13T08:42:59;98850.66;;;22.36;88.49
75650;BME280;64245;51.282;22.494;2023-07-13T08:45:29;98853.78;;;22.40;90.31
75650;BME280;64245;51.282;22.494;2023-07-13T08:48:05;98848.44;;;22.45;90.58
75650;BME280;64245;51.282;22.494;2023-07-13T08:50:58;98851.75;;;22.17;90.23
75650;BME280;64245;51.282;22.494;2023-07-13T08:53:32;98834.16;;;21.88;87.01
75650;BME280;64245;51.282;22.494;2023-07-13T08:56:00;98843.50;;;21.81;88.75
75650;BME280;64245;51.282;22.494;2023-07-13T08:58:27;98843.00;;;21.90;88.43
75650;BME280;64245;51.282;22.494;2023-07-13T09:00:56;98839.78;;;21.93;88.41
75650;BME280;64245;51.282;22.494;2023-07-13T09:03:30;98837.66;;;22.14;88.28
75650;BME280;64245;51.282;22.494;2023-07-13T09:05:58;98835.44;;;22.22;88.37
75650;BME280;64245;51.282;22.494;2023-07-13T09:08:39;98834.53;;;22.28;89.01
75650;BME280;64245;51.282;22.494;2023-07-13T09:14:05;98821.00;;;22.45;88.68
75650;BME280;64245;51.282;22.494;2023-07-13T09:16:33;98824.97;;;22.49;88.23
75650;BME280;64245;51.282;22.494;2023-07-13T09:19:04;98817.88;;;22.42;86.64
75650;BME280;64245;51.282;22.494;2023-07-13T09:21:34;98822.63;;;22.64;88.12
75650;BME280;64245;51.282;22.494;2023-07-13T09:27:17;98809.84;;;22.88;86.38
75650;BME280;64245;51.282;22.494;2023-07-13T09:29:48;98814.75;;;22.98;86.05
75650;BME280;64245;51.282;22.494;2023-07-13T09:32:18;98815.44;;;22.93;83.68
75650;BME280;64245;51.282;22.494;2023-07-13T09:34:51;98800.91;;;23.16;84.99
75650;BME280;64245;51.282;22.494;2023-07-13T09:37:18;98809.66;;;23.25;83.60
75650;BME280;64245;51.282;22.494;2023-07-13T09:39:45;98813.47;;;23.24;81.83
75650;BME280;64245;51.282;22.494;2023-07-13T09:44:43;98803.31;;;23.24;82.07
75650;BME280;64245;51.282;22.494;2023-07-13T09:47:26;98791.13;;;23.08;83.73
75650;BME280;64245;51.282;22.494;2023-07-13T09:49:57;98796.84;;;23.07;82.78
75650;BME280;64245;51.282;22.494;2023-07-13T09:52:25;98802.59;;;23.05;87.09
75650;BME280;64245;51.282;22.494;2023-07-13T09:54:53;98810.84;;;22.75;85.46
75650;BME280;64245;51.282;22.494;2023-07-13T09:57:26;98814.88;;;22.73;87.19
75650;BME280;64245;51.282;22.494;2023-07-13T09:59:54;98811.91;;;22.74;87.92
75650;BME280;64245;51.282;22.494;2023-07-13T10:04:59;98813.53;;;22.82;87.60
75650;BME280;64245;51.282;22.494;2023-07-13T10:07:26;98814.50;;;22.88;88.59
75650;BME280;64245;51.282;22.494;2023-07-13T10:09:53;98798.63;;;22.71;89.79
75650;BME280;64245;51.282;22.494;2023-07-13T10:12:21;98791.78;;;22.81;90.13
75650;BME280;64245;51.282;22.494;2023-07-13T10:14:51;98790.91;;;22.68;88.88
75650;BME280;64245;51.282;22.494;2023-07-13T10:17:27;98792.84;;;22.80;88.92
75650;BME280;64245;51.282;22.494;2023-07-13T10:19:59;98782.72;;;22.80;87.72
75650;BME280;64245;51.282;22.494;2023-07-13T10:22:32;98783.69;;;22.97;86.64
75650;BME280;64245;51.282;22.494;2023-07-13T10:25:01;98783.44;;;22.87;86.85
75650;BME280;64245;51.282;22.494;2023-07-13T10:27:33;98770.78;;;22.86;86.98
75650;BME280;64245;51.282;22.494;2023-07-13T10:30:05;98765.94;;;23.23;87.62
75650;BME280;64245;51.282;22.494;2023-07-13T10:32:35;98768.06;;;23.45;86.68
75650;BME280;64245;51.282;22.494;2023-07-13T10:35:01;98763.53;;;23.62;84.13
75650;BME280;64245;51.282;22.494;2023-07-13T10:37:44;98754.81;;;23.41;87.35
75650;BME280;64245;51.282;22.494;2023-07-13T10:40:20;98766.38;;;23.32;85.13
75650;BME280;64245;51.282;22.494;2023-07-13T10:42:50;98768.91;;;23.33;85.13
75650;BME280;64245;51.282;22.494;2023-07-13T10:45:21;98766.03;;;23.17;83.87
75650;BME280;64245;51.282;22.494;2023-07-13T10:47:50;98769.50;;;23.24;84.25
75650;BME280;64245;51.282;22.494;2023-07-13T10:50:24;98775.22;;;23.34;87.57
75650;BME280;64245;51.282;22.494;2023-07-13T10:52:52;98774.53;;;23.27;85.55
75650;BME280;64245;51.282;22.494;2023-07-13T11:01:04;98778.19;;;22.97;88.23
75650;BME280;64245;51.282;22.494;2023-07-13T11:03:35;98772.00;;;23.02;86.69
75650;BME280;64245;51.282;22.494;2023-07-13T11:11:03;98767.91;;;22.81;90.36
75650;BME280;64245;51.282;22.494;2023-07-13T11:21:31;98776.69;;;22.71;92.07
75650;BME280;64245;51.282;22.494;2023-07-13T11:24:15;98771.13;;;22.78;92.95
75650;BME280;64245;51.282;22.494;2023-07-13T11:26:42;98769.81;;;22.92;92.75
75650;BME280;64245;51.282;22.494;2023-07-13T11:29:20;98758.50;;;23.00;91.59
75650;BME280;64245;51.282;22.494;2023-07-13T11:31:54;98765.22;;;23.28;90.35
75650;BME280;64245;51.282;22.494;2023-07-13T11:34:31;98754.56;;;23.31;89.44
75650;BME280;64245;51.282;22.494;2023-07-13T11:37:00;98756.56;;;23.48;88.99
75650;BME280;64245;51.282;22.494;2023-07-13T11:39:31;98752.31;;;23.52;86.61
75650;BME280;64245;51.282;22.494;2023-07-13T11:42:03;98741.63;;;23.67;82.94
75650;BME280;64245;51.282;22.494;2023-07-13T11:44:32;98730.72;;;23.84;87.09
75650;BME280;64245;51.282;22.494;2023-07-13T11:47:00;98726.97;;;23.90;87.96
75650;BME280;64245;51.282;22.494;2023-07-13T11:49:41;98742.03;;;23.99;84.07
75650;BME280;64245;51.282;22.494;2023-07-13T11:52:11;98734.28;;;23.96;85.46
75650;BME280;64245;51.282;22.494;2023-07-13T11:54:48;98735.81;;;24.03;82.65
75650;BME280;64245;51.282;22.494;2023-07-13T11:57:32;98738.63;;;24.08;82.24
75650;BME280;64245;51.282;22.494;2023-07-13T12:00:11;98722.97;;;24.09;85.28
75650;BME280;64245;51.282;22.494;2023-07-13T12:02:43;98728.47;;;24.09;82.74
75650;BME280;64245;51.282;22.494;2023-07-13T12:05:13;98735.41;;;24.11;81.88
75650;BME280;64245;51.282;22.494;2023-07-13T12:07:40;98721.50;;;24.18;80.16
75650;BME280;64245;51.282;22.494;2023-07-13T12:12:37;98721.63;;;24.23;80.08
75650;BME280;64245;51.282;22.494;2023-07-13T12:15:07;98726.53;;;24.21;80.80
75650;BME280;64245;51.282;22.494;2023-07-13T12:17:34;98723.25;;;24.36;78.22
75650;BME280;64245;51.282;22.494;2023-07-13T12:20:03;98721.19;;;24.43;78.93
75650;BME280;64245;51.282;22.494;2023-07-13T12:22:34;98725.84;;;24.42;79.70
75650;BME280;64245;51.282;22.494;2023-07-13T12:25:00;98728.03;;;24.40;82.38
75650;BME280;64245;51.282;22.494;2023-07-13T12:27:27;98716.66;;;24.37;81.19
75650;BME280;64245;51.282;22.494;2023-07-13T12:32:24;98715.56;;;24.09;81.93
75650;BME280;64245;51.282;22.494;2023-07-13T12:35:18;98725.06;;;24.02;83.32
75650;BME280;64245;51.282;22.494;2023-07-13T12:37:46;98718.47;;;24.03;81.68
75650;BME280;64245;51.282;22.494;2023-07-13T12:40:16;98716.09;;;23.95;82.64
75650;BME280;64245;51.282;22.494;2023-07-13T12:42:46;98727.44;;;23.98;82.76
75650;BME280;64245;51.282;22.494;2023-07-13T12:45:25;98720.69;;;24.06;81.60
75650;BME280;64245;51.282;22.494;2023-07-13T12:47:55;98719.06;;;24.05;81.47
75650;BME280;64245;51.282;22.494;2023-07-13T12:50:30;98717.31;;;23.87;82.03
75650;BME280;64245;51.282;22.494;2023-07-13T12:53:01;98722.44;;;23.95;80.92
75650;BME280;64245;51.282;22.494;2023-07-13T12:55:29;98715.59;;;23.98;80.74
75650;BME280;64245;51.282;22.494;2023-07-13T12:57:58;98719.88;;;24.05;80.98
75650;BME280;64245;51.282;22.494;2023-07-13T13:00:33;98701.91;;;24.15;79.63
75650;BME280;64245;51.282;22.494;2023-07-13T13:03:30;98710.59;;;24.23;80.50
75650;BME280;64245;51.282;22.494;2023-07-13T13:06:03;98699.88;;;24.10;82.95
75650;BME280;64245;51.282;22.494;2023-07-13T13:08:34;98708.31;;;24.03;85.51
75650;BME280;64245;51.282;22.494;2023-07-13T13:11:03;98707.91;;;23.83;86.91
75650;BME280;64245;51.282;22.494;2023-07-13T13:13:29;98703.38;;;23.77;85.27
75650;BME280;64245;51.282;22.494;2023-07-13T13:15:55;98702.66;;;23.70;87.86
75650;BME280;64245;51.282;22.494;2023-07-13T13:18:23;98697.28;;;23.75;87.03
75650;BME280;64245;51.282;22.494;2023-07-13T13:20:50;98704.31;;;23.71;88.45
75650;BME280;64245;51.282;22.494;2023-07-13T13:23:18;98695.56;;;23.86;86.13
75650;BME280;64245;51.282;22.494;2023-07-13T13:25:46;98693.50;;;23.93;86.11
75650;BME280;64245;51.282;22.494;2023-07-13T13:28:18;98704.25;;;23.94;86.00